createdAt,value
2016-09-11T00:02:45.046Z,22.54
2016-09-11T00:07:41.513Z,22.45
2016-09-11T00:12:38.125Z,22.48
2016-09-11T00:17:34.774Z,22.36
2016-09-11T00:22:31.226Z,22.32
2016-09-11T00:27:27.944Z,22.23
2016-09-11T00:32:24.541Z,22.22
2016-09-11T00:37:21.584Z,22.36
2016-09-11T00:42:18.114Z,22.36
2016-09-11T00:47:17.502Z,22.36
2016-09-11T00:52:13.456Z,22.35
2016-09-11T00:57:10.041Z,22.43
2016-09-11T01:02:06.729Z,22.23
2016-09-11T01:07:03.257Z,22.17
2016-09-11T01:12:00.777Z,22.13
2016-09-11T01:16:57.047Z,22.08
2016-09-11T01:21:53.711Z,21.98
2016-09-11T01:26:50.319Z,22.02
2016-09-11T01:31:46.995Z,21.93
2016-09-11T01:36:43.541Z,22.00
2016-09-11T01:41:39.840Z,21.93
2016-09-11T01:46:36.515Z,21.79
2016-09-11T01:51:33.122Z,21.80
2016-09-11T01:56:29.820Z,21.93
2016-09-11T02:01:26.465Z,21.89
2016-09-11T02:06:23.103Z,21.96
2016-09-11T02:11:19.680Z,22.00
2016-09-11T02:16:16.480Z,22.00
2016-09-11T02:21:15.464Z,22.06
2016-09-11T02:26:11.457Z,21.93
2016-09-11T02:31:08.114Z,21.82
2016-09-11T02:36:04.674Z,21.80
2016-09-11T02:41:01.291Z,21.79
2016-09-11T02:45:58.360Z,21.73
2016-09-11T02:50:54.795Z,21.76
2016-09-11T02:55:51.693Z,21.72
2016-09-11T03:00:48.348Z,21.76
2016-09-11T03:05:46.433Z,21.80
2016-09-11T03:10:43.329Z,21.77
2016-09-11T03:15:41.439Z,21.85
2016-09-11T03:20:37.667Z,21.77
2016-09-11T03:25:34.226Z,21.73
2016-09-11T03:30:30.750Z,21.69
2016-09-11T03:35:27.484Z,21.64
2016-09-11T03:40:24.264Z,21.58
2016-09-11T03:45:21.093Z,21.54
2016-09-11T03:50:17.681Z,21.36
2016-09-11T03:55:14.673Z,21.40
2016-09-11T04:00:11.306Z,21.30
2016-09-11T04:05:07.794Z,21.18
2016-09-11T04:10:04.674Z,21.18
2016-09-11T04:15:01.521Z,21.02
2016-09-11T04:19:58.135Z,20.93
2016-09-11T04:25:06.313Z,20.81
2016-09-11T04:29:58.701Z,20.81
2016-09-11T04:34:55.219Z,20.77
2016-09-11T04:39:51.868Z,20.88
2016-09-11T04:44:48.647Z,20.74
2016-09-11T04:49:45.491Z,20.77
2016-09-11T04:54:43.121Z,20.82
2016-09-11T04:59:39.556Z,21.05
2016-09-11T05:04:36.159Z,21.22
2016-09-11T05:09:32.909Z,21.30
2016-09-11T05:14:29.955Z,21.36
2016-09-11T05:19:27.283Z,21.37
2016-09-11T05:24:23.658Z,21.17
2016-09-11T05:29:20.352Z,21.51
2016-09-11T05:34:17.661Z,21.60
2016-09-11T05:39:14.315Z,21.39
2016-09-11T05:44:10.906Z,21.42
2016-09-11T05:49:07.530Z,21.60
2016-09-11T05:54:04.131Z,21.77
2016-09-11T05:59:01.104Z,21.79
2016-09-11T06:03:57.762Z,21.73
2016-09-11T06:08:54.502Z,21.79
2016-09-11T06:13:51.683Z,21.77
2016-09-11T06:18:48.322Z,21.62
2016-09-11T06:23:45.238Z,21.75
2016-09-11T06:28:41.825Z,21.93
2016-09-11T06:33:38.945Z,22.02
2016-09-11T06:38:36.066Z,22.07
2016-09-11T06:43:35.719Z,22.14
2016-09-11T06:48:32.051Z,22.25
2016-09-11T06:53:31.527Z,22.26
2016-09-11T06:58:27.709Z,22.36
2016-09-11T07:03:24.601Z,22.43
2016-09-11T07:08:21.233Z,22.47
2016-09-11T07:13:17.981Z,22.39
2016-09-11T07:18:14.443Z,22.53
2016-09-11T07:23:11.975Z,22.54
2016-09-11T07:28:08.730Z,22.76
2016-09-11T07:33:06.358Z,22.78
2016-09-11T07:38:04.761Z,22.94
2016-09-11T07:43:01.456Z,23.25
2016-09-11T07:47:58.270Z,23.23
2016-09-11T07:52:55.586Z,23.27
2016-09-11T07:57:52.407Z,23.55
2016-09-11T08:02:49.065Z,23.61
2016-09-11T08:07:46.274Z,23.61
2016-09-11T08:12:43.789Z,24.23
2016-09-11T08:17:40.650Z,24.99
2016-09-11T08:22:37.774Z,25.32
2016-09-11T08:27:34.722Z,25.29
2016-09-11T08:32:31.531Z,25.10
2016-09-11T08:37:28.245Z,25.13
2016-09-11T08:42:28.005Z,25.11
2016-09-11T08:47:24.361Z,25.06
2016-09-11T08:52:20.917Z,25.06
2016-09-11T08:57:17.544Z,25.01
2016-09-11T09:02:14.222Z,25.04
2016-09-11T09:07:10.608Z,24.92
2016-09-11T09:12:07.108Z,25.01
2016-09-11T09:17:06.230Z,25.10
2016-09-11T09:22:02.189Z,25.10
2016-09-11T09:26:58.971Z,25.10
2016-09-11T09:31:55.596Z,25.10
2016-09-11T09:36:55.206Z,25.32
2016-09-11T09:41:51.458Z,25.58
2016-09-11T09:46:48.070Z,25.77
2016-09-11T09:51:45.410Z,25.96
2016-09-11T09:56:42.151Z,26.05
2016-09-11T10:01:39.488Z,26.13
2016-09-11T10:06:36.145Z,26.18
2016-09-11T10:11:33.282Z,26.26
2016-09-11T10:16:30.018Z,26.16
2016-09-11T10:21:26.688Z,25.91
2016-09-11T10:26:23.326Z,26.13
2016-09-11T10:31:20.315Z,26.16
2016-09-11T10:36:16.920Z,25.84
2016-09-11T10:41:13.537Z,25.63
2016-09-11T10:46:10.506Z,25.62
2016-09-11T10:51:06.864Z,25.54
2016-09-11T10:56:03.562Z,25.41
2016-09-11T11:01:00.578Z,25.38
2016-09-11T11:05:57.112Z,25.29
2016-09-11T11:10:53.842Z,25.29
2016-09-11T11:15:50.517Z,25.18
2016-09-11T11:20:47.149Z,25.21
2016-09-11T11:25:43.910Z,25.16
2016-09-11T11:30:40.764Z,25.17
2016-09-11T11:35:37.433Z,25.40
2016-09-11T11:40:34.109Z,25.40
2016-09-11T11:45:30.831Z,25.36
2016-09-11T11:50:27.551Z,25.33
2016-09-11T11:55:24.129Z,25.33
2016-09-11T12:00:20.761Z,25.46
2016-09-11T12:05:17.324Z,25.38
2016-09-11T12:10:13.898Z,25.35
2016-09-11T12:15:10.870Z,25.50
2016-09-11T12:20:07.532Z,25.55
2016-09-11T12:25:04.380Z,25.55
2016-09-11T12:30:01.386Z,25.66
2016-09-11T12:34:58.213Z,25.69
2016-09-11T12:39:54.877Z,25.78
2016-09-11T12:44:51.478Z,25.73
2016-09-11T12:49:48.122Z,25.78
2016-09-11T12:54:44.982Z,25.80
2016-09-11T12:59:41.608Z,25.80
2016-09-11T13:04:38.441Z,25.90
2016-09-11T13:09:35.121Z,25.96
2016-09-11T13:14:31.825Z,26.02
2016-09-11T13:19:28.745Z,26.09
2016-09-11T13:24:25.526Z,26.06
2016-09-11T13:29:22.285Z,26.10
2016-09-11T13:34:22.351Z,26.03
2016-09-11T13:39:18.727Z,26.02
2016-09-11T13:44:15.217Z,26.05
2016-09-11T13:49:11.906Z,26.02
2016-09-11T13:54:08.707Z,26.03
2016-09-11T13:59:07.616Z,26.05
2016-09-11T14:04:04.037Z,26.07
2016-09-11T14:09:00.770Z,26.21
2016-09-11T14:13:57.381Z,26.07
2016-09-11T14:18:54.053Z,26.07
2016-09-11T14:23:50.755Z,26.06
2016-09-11T14:28:47.387Z,26.05
2016-09-11T14:33:46.292Z,26.00
2016-09-11T14:38:42.472Z,26.07
2016-09-11T14:43:39.302Z,26.05
2016-09-11T14:48:36.251Z,26.16
2016-09-11T14:53:33.416Z,26.34
2016-09-11T14:58:30.211Z,26.53
2016-09-11T15:03:27.352Z,26.62
2016-09-11T15:08:25.483Z,26.65
2016-09-11T15:13:22.405Z,26.65
2016-09-11T15:18:19.125Z,26.68
2016-09-11T15:23:15.900Z,26.55
2016-09-11T15:28:12.620Z,26.36
2016-09-11T15:33:11.859Z,26.16
2016-09-11T15:38:07.895Z,26.07
2016-09-11T15:43:05.001Z,25.99
2016-09-11T15:48:01.699Z,25.93
2016-09-11T15:53:01.404Z,25.84
2016-09-11T15:57:57.345Z,25.87
2016-09-11T16:02:53.926Z,25.81
2016-09-11T16:07:50.562Z,25.68
2016-09-11T16:12:47.017Z,25.62
2016-09-11T16:17:43.614Z,25.66
2016-09-11T16:22:40.095Z,25.65
2016-09-11T16:27:36.905Z,25.59
2016-09-11T16:32:33.578Z,25.65
2016-09-11T16:37:30.130Z,25.60
2016-09-11T16:42:26.839Z,25.50
2016-09-11T16:47:23.389Z,25.58
2016-09-11T16:52:20.751Z,25.59
2016-09-11T16:57:17.457Z,25.53
2016-09-11T17:02:14.479Z,25.53
2016-09-11T17:07:11.322Z,25.35
2016-09-11T17:12:08.325Z,25.38
2016-09-11T17:17:07.452Z,25.29
2016-09-11T17:22:03.352Z,25.11
2016-09-11T17:27:00.279Z,25.13
2016-09-11T17:31:59.260Z,25.03
2016-09-11T17:36:55.652Z,25.03
2016-09-11T17:41:52.266Z,24.89
2016-09-11T17:46:48.790Z,24.85
2016-09-11T17:51:45.334Z,24.80
2016-09-11T17:56:42.131Z,24.70
2016-09-11T18:01:38.661Z,24.65
2016-09-11T18:06:35.534Z,24.60
2016-09-11T18:11:32.548Z,24.57
2016-09-11T18:16:29.460Z,24.36
2016-09-11T18:21:26.073Z,24.42
2016-09-11T18:26:22.756Z,24.38
2016-09-11T18:31:19.344Z,24.29
2016-09-11T18:36:15.940Z,24.26
2016-09-11T18:41:12.524Z,24.13
2016-09-11T18:46:09.177Z,24.16
2016-09-11T18:51:06.184Z,24.10
2016-09-11T18:56:02.814Z,24.05
2016-09-11T19:00:59.543Z,23.98
2016-09-11T19:05:56.107Z,24.03
2016-09-11T19:10:52.693Z,23.98
2016-09-11T19:15:49.846Z,23.92
2016-09-11T19:20:46.826Z,23.92
2016-09-11T19:25:43.538Z,23.88
2016-09-11T19:30:40.244Z,23.80
2016-09-11T19:35:36.919Z,23.77
2016-09-11T19:40:33.575Z,23.71
2016-09-11T19:45:30.534Z,23.74
2016-09-11T19:50:27.231Z,23.76
2016-09-11T19:55:23.910Z,23.66
2016-09-11T20:00:20.515Z,23.63
2016-09-11T20:05:17.120Z,23.61
2016-09-11T20:10:13.698Z,23.54
2016-09-11T20:15:10.219Z,23.55
2016-09-11T20:20:06.911Z,23.48
2016-09-11T20:25:03.480Z,23.58
2016-09-11T20:30:00.308Z,23.76
2016-09-11T20:34:57.287Z,23.74
2016-09-11T20:39:53.864Z,23.86
2016-09-11T20:44:50.524Z,23.51
2016-09-11T20:49:47.076Z,23.40
2016-09-11T20:54:43.928Z,23.39
2016-09-11T20:59:40.734Z,23.31
2016-09-11T21:04:37.271Z,23.25
2016-09-11T21:09:33.793Z,23.27
2016-09-11T21:14:30.643Z,23.31
2016-09-11T21:19:27.310Z,23.25
2016-09-11T21:24:23.878Z,23.17
2016-09-11T21:29:20.474Z,23.18
2016-09-11T21:34:18.737Z,23.18
2016-09-11T21:39:14.982Z,23.18
2016-09-11T21:44:12.071Z,23.05
2016-09-11T21:49:08.757Z,23.05
2016-09-11T21:54:05.450Z,23.09
2016-09-11T21:59:02.272Z,23.05
2016-09-11T22:03:58.688Z,23.03
2016-09-11T22:08:55.079Z,22.91
2016-09-11T22:13:52.060Z,22.87
2016-09-11T22:18:48.684Z,22.90
2016-09-11T22:23:45.192Z,22.91
2016-09-11T22:28:41.835Z,22.90
2016-09-11T22:33:39.503Z,22.81
2016-09-11T22:38:36.393Z,22.81
2016-09-11T22:43:32.812Z,22.66
2016-09-11T22:48:29.316Z,22.80
2016-09-11T22:53:25.986Z,22.68
2016-09-11T22:58:22.484Z,22.66
2016-09-11T23:03:19.101Z,22.76
2016-09-11T23:08:15.656Z,22.68
2016-09-11T23:13:12.541Z,22.70
2016-09-11T23:18:09.045Z,22.69
2016-09-11T23:23:05.555Z,22.68
2016-09-11T23:28:02.276Z,22.72
2016-09-11T23:32:58.852Z,22.62
2016-09-11T23:37:55.531Z,22.53
2016-09-11T23:42:52.539Z,22.57
2016-09-11T23:47:49.117Z,22.57
2016-09-11T23:52:45.989Z,22.59
2016-09-11T23:57:42.597Z,22.53
